createdAt,value
2022-11-02T00:01:44.546Z,20.80
2022-11-02T00:04:13.947Z,21.70
2022-11-02T00:06:45.023Z,20.60
2022-11-02T00:09:17.847Z,23.60
2022-11-02T00:11:57.299Z,22.80
2022-11-02T00:14:28.782Z,22.50
2022-11-02T00:16:58.248Z,20.80
2022-11-02T00:19:27.468Z,21.40
2022-11-02T00:22:00.397Z,21.80
2022-11-02T00:24:32.924Z,22.70
2022-11-02T00:27:02.437Z,20.40
2022-11-02T00:29:33.921Z,20.50
2022-11-02T00:32:03.275Z,18.70
2022-11-02T00:34:32.520Z,20.50
2022-11-02T00:37:01.595Z,21.30
2022-11-02T00:39:40.320Z,20.70
2022-11-02T00:42:09.639Z,21.20
2022-11-02T00:44:39.635Z,21.20
2022-11-02T00:47:12.263Z,21.50
2022-11-02T00:49:41.510Z,20.90
2022-11-02T00:52:10.444Z,22.30
2022-11-02T00:54:40.929Z,22.70
2022-11-02T01:02:09.859Z,21.00
2022-11-02T01:04:39.105Z,23.70
2022-11-02T01:07:08.332Z,22.70
2022-11-02T01:09:37.365Z,22.90
2022-11-02T01:12:07.134Z,23.60
2022-11-02T01:14:36.458Z,22.50
2022-11-02T01:17:05.525Z,22.90
2022-11-02T01:19:34.491Z,22.90
2022-11-02T01:22:03.683Z,23.40
2022-11-02T01:24:37.278Z,22.90
2022-11-02T01:27:23.954Z,24.00
2022-11-02T01:30:01.887Z,22.80
2022-11-02T01:32:31.417Z,24.20
2022-11-02T01:35:00.543Z,24.20
2022-11-02T01:37:29.580Z,25.50
2022-11-02T01:39:58.591Z,23.60
2022-11-02T01:42:29.365Z,24.50
2022-11-02T01:45:06.387Z,23.70
2022-11-02T01:47:41.451Z,24.90
2022-11-02T01:50:21.380Z,23.90
2022-11-02T01:52:50.146Z,23.30
2022-11-02T01:55:26.090Z,23.40
2022-11-02T01:58:08.649Z,23.40
2022-11-02T02:00:39.159Z,24.20
2022-11-02T02:03:12.211Z,23.30
2022-11-02T02:05:44.385Z,24.30
2022-11-02T02:08:18.812Z,22.80
2022-11-02T02:10:47.581Z,24.10
2022-11-02T02:13:18.225Z,24.10
2022-11-02T02:16:11.311Z,25.20
2022-11-02T02:18:54.934Z,25.20
2022-11-02T02:21:42.735Z,23.60
2022-11-02T02:24:37.039Z,23.90
2022-11-02T02:27:28.545Z,23.80
2022-11-02T02:30:12.199Z,24.60
2022-11-02T02:32:50.450Z,25.90
2022-11-02T02:35:45.842Z,26.10
2022-11-02T02:38:55.058Z,25.00
2022-11-02T02:41:26.769Z,26.60
2022-11-02T02:43:59.922Z,28.30
2022-11-02T02:46:40.472Z,26.60
2022-11-02T02:49:16.767Z,27.60
2022-11-02T02:51:47.653Z,28.50
2022-11-02T02:54:23.719Z,27.10
2022-11-02T02:57:11.741Z,27.30
2022-11-02T02:59:46.718Z,30.00
2022-11-02T03:02:26.174Z,28.30
2022-11-02T03:04:55.058Z,28.40
2022-11-02T03:07:35.033Z,28.70
2022-11-02T03:10:27.395Z,30.10
2022-11-02T03:13:12.061Z,29.90
2022-11-02T03:15:54.796Z,31.50
2022-11-02T03:18:28.681Z,30.50
2022-11-02T03:21:11.004Z,28.70
2022-11-02T03:23:47.683Z,31.00
2022-11-02T03:26:30.365Z,32.40
2022-11-02T03:29:26.299Z,29.20
2022-11-02T03:32:03.249Z,29.60
2022-11-02T03:34:48.772Z,32.10
2022-11-02T03:37:50.105Z,30.90
2022-11-02T03:40:25.558Z,32.00
2022-11-02T03:42:55.955Z,32.70
2022-11-02T03:45:37.842Z,31.50
2022-11-02T03:48:09.126Z,33.20
2022-11-02T03:50:43.007Z,33.60
2022-11-02T03:53:24.861Z,34.10
2022-11-02T03:55:59.075Z,32.80
2022-11-02T03:58:27.965Z,35.00
2022-11-02T04:01:04.951Z,34.10
2022-11-02T04:03:35.163Z,33.80
2022-11-02T04:06:04.323Z,35.20
2022-11-02T04:08:42.226Z,33.90
2022-11-02T04:11:49.771Z,32.80
2022-11-02T04:14:37.496Z,33.60
2022-11-02T04:19:59.999Z,36.70
2022-11-02T04:22:47.651Z,33.70
2022-11-02T04:25:19.101Z,35.10
2022-11-02T04:27:52.926Z,34.80
2022-11-02T04:30:23.602Z,37.20
2022-11-02T04:33:10.956Z,35.80
2022-11-02T04:35:39.668Z,37.10
2022-11-02T04:38:27.273Z,35.70
2022-11-02T04:41:16.066Z,37.50
2022-11-02T04:43:44.877Z,37.50
2022-11-02T04:46:13.488Z,37.20
2022-11-02T04:48:42.349Z,33.20
2022-11-02T04:51:11.461Z,37.20
2022-11-02T04:53:40.488Z,36.10
2022-11-02T04:56:09.883Z,35.50
2022-11-02T04:58:39.579Z,36.20
2022-11-02T05:01:16.178Z,35.30
2022-11-02T05:03:55.781Z,34.90
2022-11-02T05:06:32.621Z,35.00
2022-11-02T05:09:01.564Z,34.50
2022-11-02T05:11:30.249Z,33.80
2022-11-02T05:13:59.190Z,37.00
2022-11-02T05:16:30.335Z,36.20
2022-11-02T05:18:59.367Z,35.10
2022-11-02T05:21:29.904Z,35.30
2022-11-02T05:23:59.662Z,33.30
2022-11-02T05:26:30.056Z,37.30
2022-11-02T05:29:00.466Z,34.80
2022-11-02T05:31:48.064Z,36.90
2022-11-02T05:34:19.598Z,34.70
2022-11-02T05:36:49.992Z,34.80
2022-11-02T05:39:19.336Z,33.50
2022-11-02T05:41:53.647Z,34.70
2022-11-02T05:44:31.191Z,36.10
2022-11-02T05:47:03.812Z,37.30
2022-11-02T05:49:34.687Z,33.60
2022-11-02T05:52:04.926Z,34.90
2022-11-02T05:54:41.373Z,32.30
2022-11-02T05:57:10.638Z,35.40
2022-11-02T05:59:42.719Z,35.30
2022-11-02T06:02:25.599Z,37.50
2022-11-02T06:07:38.124Z,38.60
2022-11-02T06:10:08.696Z,37.50
2022-11-02T06:12:58.520Z,36.40
2022-11-02T06:15:35.370Z,35.90
2022-11-02T06:18:05.883Z,35.40
2022-11-02T06:20:35.670Z,35.50
2022-11-02T06:23:10.638Z,33.90
2022-11-02T06:26:04.087Z,34.30
2022-11-02T06:28:39.745Z,35.50
2022-11-02T06:31:18.364Z,34.40
2022-11-02T06:33:57.243Z,32.20
2022-11-02T06:36:39.575Z,31.20
2022-11-02T06:39:09.462Z,31.30
2022-11-02T06:41:43.268Z,30.80
2022-11-02T06:44:14.571Z,32.80
2022-11-02T06:46:46.976Z,35.30
2022-11-02T06:49:18.145Z,31.60
2022-11-02T06:51:47.924Z,27.50
2022-11-02T06:54:26.155Z,27.50
2022-11-02T06:56:55.927Z,27.30
2022-11-02T07:02:01.797Z,29.20
2022-11-02T07:04:45.984Z,27.10
2022-11-02T07:07:24.860Z,28.70
2022-11-02T07:09:59.983Z,26.70
2022-11-02T07:13:00.234Z,23.10
2022-11-02T07:15:33.616Z,25.50
2022-11-02T07:18:38.229Z,25.00
2022-11-02T07:21:15.061Z,22.50
2022-11-02T07:24:00.841Z,21.70
2022-11-02T07:27:03.796Z,22.10
2022-11-02T07:29:42.545Z,21.90
2022-11-02T07:32:53.414Z,23.50
2022-11-02T07:35:45.962Z,21.20
2022-11-02T07:38:31.012Z,21.20
2022-11-02T07:41:20.798Z,21.20
2022-11-02T07:43:59.509Z,23.20
2022-11-02T07:47:00.403Z,21.60
2022-11-02T07:49:48.721Z,22.00
2022-11-02T07:52:28.987Z,21.30
2022-11-02T07:55:12.313Z,19.80
2022-11-02T07:57:44.654Z,21.70
2022-11-02T08:00:20.407Z,20.70
2022-11-02T08:03:30.626Z,18.20
2022-11-02T08:06:13.823Z,19.30
2022-11-02T08:09:05.955Z,19.20
2022-11-02T08:12:44.905Z,21.00
2022-11-02T08:15:36.612Z,21.00
2022-11-02T08:18:18.958Z,21.00
2022-11-02T08:21:03.210Z,21.40
2022-11-02T08:23:40.203Z,21.30
2022-11-02T08:26:15.853Z,21.60
2022-11-02T08:29:21.736Z,20.70
2022-11-02T08:32:54.041Z,19.40
2022-11-02T08:35:38.705Z,19.50
2022-11-02T08:38:19.743Z,19.30
2022-11-02T08:41:27.319Z,19.70
2022-11-02T08:44:10.881Z,19.00
2022-11-02T08:47:04.203Z,19.60
2022-11-02T08:49:47.859Z,21.20
2022-11-02T08:52:28.517Z,19.50
2022-11-02T08:55:19.309Z,21.50
2022-11-02T08:58:05.239Z,20.40
2022-11-02T09:00:50.123Z,22.10
2022-11-02T09:03:27.683Z,21.70
2022-11-02T09:06:10.025Z,22.90
2022-11-02T09:08:47.002Z,22.60
2022-11-02T09:11:26.226Z,23.10
2022-11-02T09:14:12.078Z,21.10
2022-11-02T09:16:51.367Z,21.50
2022-11-02T09:19:35.317Z,22.20
2022-11-02T09:22:16.923Z,21.90
2022-11-02T09:25:05.768Z,20.00
2022-11-02T09:27:40.061Z,18.70
2022-11-02T09:30:22.230Z,19.20
2022-11-02T09:33:17.523Z,19.20
2022-11-02T09:36:08.862Z,20.40
2022-11-02T09:38:55.038Z,17.10
2022-11-02T09:41:49.346Z,16.10
2022-11-02T09:45:09.300Z,15.50
2022-11-02T09:48:17.187Z,17.80
2022-11-02T09:51:24.909Z,15.90
2022-11-02T09:54:13.348Z,16.50
2022-11-02T09:57:02.301Z,17.40
2022-11-02T09:59:44.026Z,16.30
2022-11-02T10:02:35.008Z,17.30
2022-11-02T10:05:16.196Z,16.00
2022-11-02T10:08:49.152Z,17.50
2022-11-02T10:11:25.159Z,16.70
2022-11-02T10:14:40.822Z,18.70
2022-11-02T10:17:34.461Z,17.30
2022-11-02T10:20:55.032Z,19.90
2022-11-02T10:24:14.460Z,17.30
2022-11-02T10:26:50.868Z,16.80
2022-11-02T10:29:40.064Z,20.10
2022-11-02T10:32:21.329Z,19.20
2022-11-02T10:35:51.427Z,19.00
2022-11-02T10:38:33.297Z,17.00
2022-11-02T10:41:31.329Z,17.80
2022-11-02T10:44:36.854Z,19.20
2022-11-02T10:47:55.399Z,18.50
2022-11-02T10:50:56.255Z,18.30
2022-11-02T10:53:50.693Z,17.50
2022-11-02T10:56:40.456Z,18.20
2022-11-02T10:59:32.823Z,18.00
2022-11-02T11:02:53.772Z,17.50
2022-11-02T11:05:33.366Z,17.40
2022-11-02T11:08:05.027Z,17.50
2022-11-02T11:10:44.982Z,15.30
2022-11-02T11:16:24.217Z,15.30
2022-11-02T11:22:45.419Z,14.00
2022-11-02T11:26:00.490Z,14.30
2022-11-02T11:29:23.788Z,13.60
2022-11-02T11:32:29.837Z,13.70
2022-11-02T11:35:40.177Z,13.20
2022-11-02T11:38:24.075Z,12.40
2022-11-02T11:41:12.816Z,13.30
2022-11-02T11:44:00.661Z,13.20
2022-11-02T11:47:02.137Z,13.40
2022-11-02T11:50:10.647Z,13.60
2022-11-02T11:53:27.921Z,13.20
2022-11-02T11:56:34.034Z,13.80
2022-11-02T11:59:41.679Z,12.70
2022-11-02T12:03:07.568Z,12.70
2022-11-02T12:06:38.118Z,13.60
